map of BQT home
BQT - Airport
Location
City:  Brest, Brestskaya (Brest), Belarus
Name:Brest Airport
ICAO:UMBB
IATA:BQT

Details
Type:Airport (Aerodrome, Airfield)
Use:Public/Civil
Latitude:5206'30"N (52.108334)
Longitude:2353'53"E (23.898056)
Elevation:468 ft (143 m)
Variation:6.64E (WMM2015 magnetic declination)
0.13 annual change
Runways:1
Longest:8596 × 138 ft (2620 × 42 m), paved

Time
Time Zone:UTC+2 (DST+3)

Weather
METAR:UMBB 210300Z 00000MPS 0200 R29/0650 FG NSC 02/02 Q1023 NOSIG

Related Locations
Nearby:
Farthest:CHT: 11337 mi / 18245 km
Waitangi [Tuuta], CIT, NZ

Find:

   beyond  
but within

Other Information
Maps:
NOTAMs:
Links:
Sources:

  
  • flag of Belarus
  • flag of Brestskaya (Brest)
  

Sectional Chart

Flight Planning
at skyvector.com

Satellite Image

Google Maps Satellite view

 

Copyright © 2004-2018 Karl L. Swartz. All rights reserved.
The Great Circle Mapper name and logo are trademarks of the Great Circle Mapper.
All other trademarks mentioned herein belong to their respective owners.
Please see credits for attibutions and further copyright information.

  Follow gcmap on Facebook Follow gcmap on Twitter Follow gcmap on Google+ GCmap on LinkedIn

hCard Microformat

Geo Microformat